M I D A S
Marine Information and Data Acquisition System
Tripno 1882 of the Zeeleeuw from 2010-05-20 07:24:50 to 2010-05-20 13:17:42
Back to CruiseResearch ActivitiesStationsMapUnderway DataData graphs

EquipmentUnitsComment
TimeDGPSUTC
LatitudeDGPSDM.mWGS84
LongitudeDGPSDM.mWGS84
HeadingGyrodeg 
SOGDGPSknotsSpeed over ground
COGDGPSdegCourse over ground
DepthEcho soundermeters200 kHz
Missing or incorrect values are displayed as -999
Navigation data collected by the RV Zeeleeuw from 2010-05-20 06:15:02 to 2010-05-20 15:18:10
Time Latitude Longitude Heading SOG COG Depth
2010-05-20 06:16:07 51°13.659 2°55.963 126.6 -999 230 -999
2010-05-20 06:17:08 51°13.661 2°55.961 126.3 -999 37 -999
2010-05-20 06:18:08 51°13.661 2°55.961 126.3 -999 302 -999
2010-05-20 06:19:07 51°13.66 2°55.96 126.4 -999 247 -999
2010-05-20 06:20:08 51°13.661 2°55.96 126.2 -999 61 -999
2010-05-20 06:21:08 51°13.661 2°55.96 126.2 -999 284 -999
2010-05-20 06:22:09 51°13.662 2°55.96 125.7 -999 341 -999
2010-05-20 06:23:09 51°13.662 2°55.96 125.6 -999 214 -999
2010-05-20 06:24:09 51°13.662 2°55.959 125.5 -999 221 -999
2010-05-20 06:25:09 51°13.663 2°55.959 125.4 -999 209 -999
2010-05-20 06:26:09 51°13.664 2°55.959 125.5 -999 208 -999
2010-05-20 06:27:09 51°13.664 2°55.959 125.6 -999 22 -999
2010-05-20 06:28:09 51°13.664 2°55.959 125.8 -999 301 -999
2010-05-20 06:29:09 51°13.663 2°55.96 125.7 -999 216 -999
2010-05-20 06:30:09 51°13.663 2°55.96 125.7 -999 310 -999
2010-05-20 06:31:09 51°13.663 2°55.96 125.7 -999 264 -999
2010-05-20 06:32:09 51°13.663 2°55.96 125.7 -999 255 -999
2010-05-20 06:33:09 51°13.663 2°55.959 125.7 -999 333 -999
2010-05-20 06:34:09 51°13.663 2°55.959 125.7 -999 327 -999
2010-05-20 06:35:09 51°13.663 2°55.959 125.5 -999 62 -999
2010-05-20 06:36:09 51°13.663 2°55.959 125.2 -999 50 -999
2010-05-20 06:37:09 51°13.663 2°55.959 125.3 -999 272 -999
2010-05-20 06:38:09 51°13.662 2°55.959 125.3 -999 228 -999
2010-05-20 06:39:09 51°13.662 2°55.959 125.5 -999 222 -999
2010-05-20 06:40:09 51°13.662 2°55.959 125.3 -999 20 -999
2010-05-20 06:41:09 51°13.661 2°55.959 125.3 -999 34 -999
2010-05-20 06:42:09 51°13.661 2°55.959 125.4 -999 36 -999
2010-05-20 06:43:09 51°13.662 2°55.958 125.4 -999 39 -999
2010-05-20 06:44:09 51°13.662 2°55.959 125.4 -999 341 -999
2010-05-20 06:45:09 51°13.662 2°55.959 125.4 -999 307 -999
2010-05-20 06:46:09 51°13.662 2°55.959 125.3 -999 331 -999
2010-05-20 06:47:09 51°13.663 2°55.959 125.4 -999 340 -999
2010-05-20 06:48:09 51°13.663 2°55.959 125.2 -999 37 -999
2010-05-20 06:49:09 51°13.663 2°55.959 125.3 -999 -999 -999
2010-05-20 06:50:09 51°13.663 2°55.959 125.3 -999 352 -999
2010-05-20 06:51:09 51°13.663 2°55.959 125.2 -999 2 -999
2010-05-20 06:52:09 51°13.663 2°55.959 125.3 -999 320 -999
2010-05-20 06:53:09 51°13.663 2°55.96 125.3 -999 199 -999
2010-05-20 06:54:09 51°13.663 2°55.96 125.4 -999 14 -999
2010-05-20 06:55:09 51°13.663 2°55.96 125.4 -999 281 -999
2010-05-20 06:56:09 51°13.664 2°55.959 125.5 -999 298 -999
2010-05-20 06:57:09 51°13.664 2°55.959 125.5 -999 201 -999
2010-05-20 06:58:09 51°13.665 2°55.959 125.5 -999 217 -999
2010-05-20 06:59:09 51°13.665 2°55.959 125.5 -999 341 -999
2010-05-20 07:00:09 51°13.665 2°55.959 125.5 -999 276 -999
2010-05-20 07:01:09 51°13.665 2°55.96 125.5 -999 205 -999
2010-05-20 07:02:09 51°13.665 2°55.96 125.5 -999 311 -999
2010-05-20 07:03:09 51°13.665 2°55.959 125.6 -999 340 -999
2010-05-20 07:04:09 51°13.665 2°55.96 125.6 -999 85 -999
2010-05-20 07:05:09 51°13.663 2°55.961 125.7 -999 335 -999
2010-05-20 07:06:09 51°13.662 2°55.961 125.8 -999 90 -999
2010-05-20 07:07:09 51°13.662 2°55.961 125.8 -999 51 -999
2010-05-20 07:08:09 51°13.663 2°55.96 126 -999 357 -999
2010-05-20 07:09:09 51°13.663 2°55.96 126.2 -999 37 -999
2010-05-20 07:10:09 51°13.663 2°55.96 126.3 -999 314 -999
2010-05-20 07:11:09 51°13.663 2°55.96 126.4 -999 11 -999
2010-05-20 07:12:09 51°13.663 2°55.961 126.5 -999 45 -999
2010-05-20 07:13:09 51°13.662 2°55.961 126.5 -999 2 -999
2010-05-20 07:14:09 51°13.662 2°55.962 126.5 -999 216 -999
2010-05-20 07:15:07 51°13.661 2°55.962 126.7 -999 7 7.2
2010-05-20 07:16:06 51°13.661 2°55.962 126.8 -999 21 7.2
2010-05-20 07:17:05 51°13.662 2°55.962 127 -999 197 7.2
2010-05-20 07:18:05 51°13.662 2°55.961 127 -999 25 7.2
2010-05-20 07:19:05 51°13.663 2°55.961 126.9 -999 228 7.1
2010-05-20 07:20:05 51°13.662 2°55.962 127.9 -999 319 7.1
2010-05-20 07:21:05 51°13.662 2°55.963 127.9 -999 345 7.1
2010-05-20 07:22:05 51°13.662 2°55.962 127.9 -999 233 7.1
2010-05-20 07:23:05 51°13.663 2°55.962 128 -999 201 7.1
2010-05-20 07:24:05 51°13.663 2°55.96 129.1 0.1 275 7.1
2010-05-20 07:25:05 51°13.662 2°55.962 124 0.1 191 7.1
2010-05-20 07:26:05 51°13.661 2°55.962 115.4 -999 204 7.2
2010-05-20 07:27:05 51°13.665 2°55.941 111.2 2.2 291 -999
2010-05-20 07:28:09 51°13.686 2°55.852 106.8 3.6 287 -999
2010-05-20 07:29:09 51°13.698 2°55.77 93.2 2.8 278 -999
2010-05-20 07:30:07 51°13.701 2°55.734 67.7 0.5 342 13.3
2010-05-20 07:31:05 51°13.71 2°55.735 28.1 0.5 231 13.9
2010-05-20 07:32:09 51°13.71 2°55.725 355 1.6 349 -999
2010-05-20 07:33:07 51°13.781 2°55.677 339.5 6.9 337 12.2
2010-05-20 07:34:05 51°13.895 2°55.593 337.7 8.4 335 12.1
2010-05-20 07:35:05 51°14.025 2°55.497 338.5 8.7 337 11.9
2010-05-20 07:36:05 51°14.156 2°55.391 332.5 9.3 330 11.8
2010-05-20 07:37:05 51°14.296 2°55.255 331.4 10.7 329 11.6
2010-05-20 07:38:05 51°14.465 2°55.107 338 12.2 333 11.5
2010-05-20 07:39:05 51°14.633 2°54.914 331.5 13 330 12.3
2010-05-20 07:40:05 51°14.815 2°54.702 324 13.8 324 12
2010-05-20 07:41:05 51°15 2°54.491 322.8 13.6 323 10.9
2010-05-20 07:42:05 51°15.19 2°54.288 324.1 13.7 320 11
2010-05-20 07:43:05 51°15.368 2°54.062 326.6 13.8 325 11.5
2010-05-20 07:44:05 51°15.554 2°53.848 326.9 13.7 325 12
2010-05-20 07:45:04 51°15.741 2°53.643 327.9 13.8 326 11.7
2010-05-20 07:46:05 51°15.937 2°53.438 328.9 13.9 328 12.3
2010-05-20 07:47:05 51°16.137 2°53.259 334.9 13.9 333 12.7
2010-05-20 07:48:05 51°16.347 2°53.098 334.7 14 333 12.6
2010-05-20 07:49:05 51°16.553 2°52.932 334.5 14 334 12.3
2010-05-20 07:50:05 51°16.767 2°52.79 339.5 13.9 339 10.6
2010-05-20 07:51:05 51°16.984 2°52.657 340 14.1 340 10.6
2010-05-20 07:52:05 51°17.204 2°52.525 339.5 14.1 339 10.7
2010-05-20 07:53:05 51°17.433 2°52.483 13.9 14 17 11.3
2010-05-20 07:54:05 51°17.62 2°52.697 46.6 14.1 45 10.8
2010-05-20 07:55:05 51°17.785 2°52.963 49 14.1 46 10.8
2010-05-20 07:56:05 51°17.949 2°53.228 49.1 14.1 45 10.9
2010-05-20 07:57:05 51°18.113 2°53.493 49 13.9 46 10.9
2010-05-20 07:58:05 51°18.274 2°53.759 49.1 14 46 11.2
2010-05-20 07:59:05 51°18.438 2°54.024 49.3 14.1 45 11.3
2010-05-20 08:00:05 51°18.602 2°54.291 48.7 14.1 46 11.4
2010-05-20 08:01:05 51°18.747 2°54.581 59.1 13.9 55 11.7
2010-05-20 08:02:05 51°18.864 2°54.898 65.3 13.8 61 11.5
2010-05-20 08:03:05 51°18.972 2°55.221 65.5 13.7 62 11.4
2010-05-20 08:04:05 51°19.081 2°55.542 64.7 13.8 62 11.5
2010-05-20 08:05:05 51°19.182 2°55.872 70.1 13.7 67 11.5
2010-05-20 08:06:05 51°19.272 2°56.208 69.8 13.7 67 11.3
2010-05-20 08:07:05 51°19.364 2°56.542 69.3 13.7 66 11.3
2010-05-20 08:08:05 51°19.457 2°56.874 69.2 13.6 66 11.1
2010-05-20 08:09:05 51°19.55 2°57.206 69 13.7 65 11.1
2010-05-20 08:10:05 51°19.643 2°57.537 69.7 13.6 66 11
2010-05-20 08:11:05 51°19.736 2°57.87 69.6 13.7 67 11
2010-05-20 08:12:05 51°19.828 2°58.202 69.3 13.7 66 10.6
2010-05-20 08:13:05 51°19.92 2°58.533 69.4 13.6 66 10.6
2010-05-20 08:14:05 51°20.009 2°58.862 69.2 13.5 65 10.6
2010-05-20 08:15:05 51°20.101 2°59.189 69.6 13.4 66 10.8
2010-05-20 08:16:05 51°20.192 2°59.516 68.9 13.4 66 10.6
2010-05-20 08:17:05 51°20.286 2°59.842 68.7 13.6 65 10.6
2010-05-20 08:18:05 51°20.378 3°0.17 68.7 13.5 66 10.2
2010-05-20 08:19:05 51°20.471 3°0.498 69.1 13.5 66 10.3
2010-05-20 08:20:05 51°20.515 3°0.841 89.4 13.2 90 10.3
2010-05-20 08:21:05 51°20.519 3°1.192 91.3 13.1 87 10.2
2010-05-20 08:22:05 51°20.537 3°1.537 77.7 13.1 75 9.8
2010-05-20 08:23:05 51°20.625 3°1.859 67.3 13.3 65 10
2010-05-20 08:24:05 51°20.702 3°2.188 75.2 13.2 73 10
2010-05-20 08:25:05 51°20.749 3°2.53 79.8 13.3 77 10
2010-05-20 08:26:05 51°20.785 3°2.874 84 13.2 82 9.6
2010-05-20 08:27:05 51°20.814 3°3.22 83.6 13.2 82 9.7
2010-05-20 08:28:05 51°20.843 3°3.565 83.5 13 82 9.8
2010-05-20 08:29:04 51°20.872 3°3.902 83.3 13 83 9.4
2010-05-20 08:30:03 51°20.901 3°4.24 84.1 13 83 9.4
2010-05-20 08:31:04 51°20.93 3°4.589 84.3 13.1 83 9.2
2010-05-20 08:32:04 51°20.96 3°4.931 83.4 13.1 82 9.1
2010-05-20 08:33:04 51°20.986 3°5.215 82.1 7.3 84 9.2
2010-05-20 08:34:04 51°20.952 3°5.326 135.8 3.5 147 9.1
2010-05-20 08:35:04 51°20.904 3°5.336 180 2.9 196 9.1
2010-05-20 08:36:04 51°20.865 3°5.293 217.2 3.1 229 8.8
2010-05-20 08:37:04 51°20.85 3°5.195 282.8 4.5 281 8.7
2010-05-20 08:38:03 51°20.905 3°5.126 4.7 4.3 358 8.9
2010-05-20 08:39:04 51°20.98 3°5.154 31.2 4.6 23 9.3
2010-05-20 08:40:04 51°21.035 3°5.212 51.4 3.3 43 9.4
2010-05-20 08:41:03 51°21.062 3°5.275 67.6 3 64 9.7
2010-05-20 08:42:05 51°21.083 3°5.353 70.5 3.1 67 9.6
2010-05-20 08:43:05 51°21.108 3°5.428 64.9 3.1 60 9.7
2010-05-20 08:44:04 51°21.144 3°5.485 42.4 3.2 33 9.5
2010-05-20 08:45:04 51°21.19 3°5.531 40.1 3.5 31 9.7
2010-05-20 08:46:04 51°21.24 3°5.581 44.1 3.5 34 9.9
2010-05-20 08:47:04 51°21.287 3°5.633 44.4 3.4 34 10
2010-05-20 08:48:04 51°21.333 3°5.683 44.5 3.4 34 10
2010-05-20 08:49:04 51°21.379 3°5.734 44.4 3.3 34 10.2
2010-05-20 08:50:04 51°21.427 3°5.783 44.4 3.4 33 10.4
2010-05-20 08:51:04 51°21.473 3°5.834 44.6 3.4 36 10.8
2010-05-20 08:52:05 51°21.517 3°5.894 55 3.5 48 10.9
2010-05-20 08:53:04 51°21.55 3°5.969 62.5 3.5 57 10.8
2010-05-20 08:54:04 51°21.582 3°6.047 61.3 3.5 55 10.7
2010-05-20 08:55:04 51°21.616 3°6.124 60.1 3.5 53 11
2010-05-20 08:56:04 51°21.65 3°6.199 60.1 3.5 53 11
2010-05-20 08:57:04 51°21.684 3°6.275 63.2 3.4 57 11.1
2010-05-20 08:58:04 51°21.716 3°6.354 64.9 3.5 60 11.2
2010-05-20 08:59:04 51°21.746 3°6.435 64.9 3.6 61 11.2
2010-05-20 09:00:04 51°21.775 3°6.518 65 3.6 60 11.3
2010-05-20 09:01:04 51°21.8 3°6.604 70.2 3.5 67 11.2
2010-05-20 09:02:04 51°21.823 3°6.691 69.7 3.5 65 11.3
2010-05-20 09:03:04 51°21.847 3°6.779 69.8 3.6 65 11.2
2010-05-20 09:04:04 51°21.874 3°6.864 69.8 3.6 66 11.4
2010-05-20 09:05:04 51°21.898 3°6.953 70.4 3.7 68 11.6
2010-05-20 09:06:04 51°21.919 3°7.043 75.1 3.6 72 11.5
2010-05-20 09:07:04 51°21.936 3°7.135 74.8 3.5 73 11.7
2010-05-20 09:08:04 51°21.954 3°7.225 74.9 3.6 72 11.7
2010-05-20 09:09:04 51°21.972 3°7.314 74.7 3.4 72 11.8
2010-05-20 09:10:04 51°21.991 3°7.401 71.2 3.4 68 11.9
2010-05-20 09:11:04 51°22.011 3°7.488 74.2 3.4 72 12
2010-05-20 09:12:04 51°22.029 3°7.574 74.5 3.4 73 12
2010-05-20 09:13:04 51°22.046 3°7.662 74.2 3.6 72 11.9
2010-05-20 09:14:04 51°22.062 3°7.757 83.5 3.6 86 12.1
2010-05-20 09:15:04 51°22.053 3°7.854 95.9 3.6 102 11.9
2010-05-20 09:16:04 51°22.032 3°7.936 115.4 2.7 132 11.9
2010-05-20 09:17:04 51°21.994 3°7.969 140.5 2.7 167 11.6
2010-05-20 09:18:04 51°21.928 3°7.986 154.7 6.1 170 11.4
2010-05-20 09:19:04 51°21.85 3°7.976 177.8 4.1 202 11.1
2010-05-20 09:20:04 51°21.799 3°7.923 198.9 3.5 224 10.8
2010-05-20 09:21:04 51°21.764 3°7.862 205.4 3 230 10.8
2010-05-20 09:22:05 51°21.73 3°7.777 243.3 4.8 250 10.8
2010-05-20 09:23:04 51°21.754 3°7.642 332.8 3.5 323 10.8
2010-05-20 09:24:04 51°21.859 3°7.662 35.2 8.1 26 11.1
2010-05-20 09:25:04 51°21.976 3°7.782 50.4 6.5 39 11.6
2010-05-20 09:26:05 51°22.02 3°7.859 72.3 2.1 53 11.7
2010-05-20 09:27:05 51°22.039 3°7.863 48.7 1.3 337 11.8
2010-05-20 09:28:05 51°22.058 3°7.843 44.1 1.4 320 11.7
2010-05-20 09:29:05 51°22.074 3°7.819 42.9 1.3 311 11.8
2010-05-20 09:30:05 51°22.086 3°7.791 42.3 1.3 301 11.9
2010-05-20 09:31:05 51°22.095 3°7.763 42.7 1.2 294 12
2010-05-20 09:32:05 51°22.102 3°7.732 42.2 1.2 289 11.8
2010-05-20 09:33:05 51°22.107 3°7.701 42.9 1.3 284 11.8
2010-05-20 09:34:05 51°22.111 3°7.668 43.4 1.3 279 11.9
2010-05-20 09:35:05 51°22.114 3°7.634 44.1 1.3 277 12
2010-05-20 09:36:05 51°22.116 3°7.6 45.5 1.3 276 11.8
2010-05-20 09:37:05 51°22.118 3°7.565 47.2 1.3 274 11.9
2010-05-20 09:38:05 51°22.119 3°7.53 49.2 1.3 272 11.7
2010-05-20 09:39:05 51°22.12 3°7.496 50.5 1.2 268 11.7
2010-05-20 09:40:05 51°22.12 3°7.461 52.1 1.4 270 11.6
2010-05-20 09:41:05 51°22.119 3°7.427 52.3 1.3 268 11.8
2010-05-20 09:42:05 51°22.119 3°7.393 51.9 1.3 267 11.7
2010-05-20 09:43:05 51°22.118 3°7.358 51 1.3 268 11.6
2010-05-20 09:44:05 51°22.126 3°7.332 29.7 1.5 324 11.8
2010-05-20 09:45:05 51°22.155 3°7.291 340.6 3.1 311 12
2010-05-20 09:46:05 51°22.177 3°7.195 279.1 4.5 273 11.9
2010-05-20 09:47:05 51°22.15 3°7.066 234.9 6.8 242 11.8
2010-05-20 09:48:05 51°22.074 3°6.825 244.2 12.4 249 11.5
2010-05-20 09:49:05 51°21.984 3°6.487 240.4 14.6 241 11.2
2010-05-20 09:50:05 51°21.858 3°6.147 236.8 15 239 10.6
2010-05-20 09:51:05 51°21.732 3°5.803 239.6 15 242 10
2010-05-20 09:52:05 51°21.613 3°5.45 240.5 15.1 242 9.9
2010-05-20 09:53:05 51°21.498 3°5.092 244 15.2 245 10.1
2010-05-20 09:54:05 51°21.388 3°4.733 244.2 14.9 242 9.8
2010-05-20 09:55:05 51°21.28 3°4.374 244 14.9 245 9.9
2010-05-20 09:56:05 51°21.169 3°4.018 242.9 15 243 9.5
2010-05-20 09:57:05 51°21.054 3°3.666 238.7 15 236 9.2
2010-05-20 09:58:05 51°20.9 3°3.36 227.1 14.7 228 8.7
2010-05-20 09:59:05 51°20.789 3°3.017 255.2 14.7 255 8.3
2010-05-20 10:00:05 51°20.695 3°2.655 241.2 14.7 240 8.3
2010-05-20 10:01:05 51°20.583 3°2.31 250.7 14.7 252 8.1
2010-05-20 10:02:05 51°20.538 3°1.924 263 14.9 259 8.3
2010-05-20 10:03:05 51°20.453 3°1.555 244 14.8 243 8.2
2010-05-20 10:04:05 51°20.354 3°1.194 248.7 15 249 8.4
2010-05-20 10:05:05 51°20.26 3°0.83 248.4 14.8 248 8.2
2010-05-20 10:06:05 51°20.168 3°0.465 249.6 14.8 250 8.2
2010-05-20 10:07:05 51°20.084 3°0.095 251 14.8 251 8.1
2010-05-20 10:08:05 51°19.995 2°59.728 252 14.8 251 8.4
2010-05-20 10:09:05 51°19.908 2°59.359 250.3 14.9 249 8.5
2010-05-20 10:10:05 51°19.821 2°58.988 249.6 14.9 248 8.5
2010-05-20 10:11:05 51°19.734 2°58.617 251.1 15 250 8.8
2010-05-20 10:12:05 51°19.647 2°58.245 247.9 14.9 247 8.9
2010-05-20 10:13:05 51°19.557 2°57.876 250 14.9 248 8.9
2010-05-20 10:14:05 51°19.47 2°57.506 250.8 14.9 250 9.2
2010-05-20 10:15:05 51°19.386 2°57.135 249.1 14.9 249 9.4
2010-05-20 10:16:05 51°19.299 2°56.766 248.5 14.8 249 9.4
2010-05-20 10:17:05 51°19.209 2°56.403 249.1 14.7 249 9.3
2010-05-20 10:18:05 51°19.121 2°56.039 249.8 14.6 249 9.5
2010-05-20 10:19:05 51°19.032 2°55.677 249.8 14.6 249 9.8
2010-05-20 10:20:05 51°18.947 2°55.316 248.2 14.5 248 9.7
2010-05-20 10:21:05 51°18.862 2°54.954 249.8 14.6 250 9.8
2010-05-20 10:22:05 51°18.777 2°54.592 252.6 14.6 251 10
2010-05-20 10:23:05 51°18.692 2°54.229 251.2 14.6 249 10.1
2010-05-20 10:24:05 51°18.591 2°53.878 245.3 14.6 248 10
2010-05-20 10:25:05 51°18.505 2°53.518 250.6 14.6 249 10.1
2010-05-20 10:26:05 51°18.419 2°53.155 250.8 14.6 250 9.8
2010-05-20 10:27:05 51°18.33 2°52.794 251.8 14.5 252 9.8
2010-05-20 10:28:05 51°18.176 2°52.513 215.8 14.4 216 9.7
2010-05-20 10:29:05 51°17.962 2°52.356 196.9 14.1 200 9.3
2010-05-20 10:30:05 51°17.739 2°52.223 192.7 14.3 193 10.1
2010-05-20 10:31:05 51°17.502 2°52.194 181.5 14.2 185 10.2
2010-05-20 10:32:05 51°17.264 2°52.175 179.5 14.3 184 10.1
2010-05-20 10:33:05 51°17.027 2°52.157 181.1 14 182 9.8
2010-05-20 10:34:05 51°16.79 2°52.135 180.1 14.3 184 9.9
2010-05-20 10:35:05 51°16.609 2°51.934 239.9 14 238 9.8
2010-05-20 10:36:06 51°16.455 2°51.642 230.7 14.5 230 10
2010-05-20 10:37:06 51°16.301 2°51.35 230.2 14.7 230 10.2
2010-05-20 10:38:06 51°16.165 2°51.034 240.3 14.6 237 10.2
2010-05-20 10:39:06 51°16.042 2°50.699 240 14.6 239 10.4
2010-05-20 10:40:07 51°15.918 2°50.358 239.2 14.6 241 10.2
2010-05-20 10:41:07 51°15.829 2°49.999 250.5 14.6 249 10.3
2010-05-20 10:42:07 51°15.745 2°49.638 250.5 14.6 250 10.3
2010-05-20 10:43:07 51°15.659 2°49.277 249.3 14.5 248 9.9
2010-05-20 10:44:07 51°15.575 2°48.917 249.8 14.4 248 9.5
2010-05-20 10:45:07 51°15.488 2°48.56 248.8 14.4 250 9.1
2010-05-20 10:46:07 51°15.402 2°48.202 247.9 14.4 247 8.9
2010-05-20 10:47:06 51°15.321 2°47.85 251.2 14.4 251 8.5
2010-05-20 10:48:06 51°15.24 2°47.49 251.2 14.4 250 8.4
2010-05-20 10:49:06 51°15.155 2°47.131 252.1 14.4 254 8.3
2010-05-20 10:50:07 51°15.071 2°46.764 248.3 14.5 248 8.6
2010-05-20 10:51:06 51°14.988 2°46.407 249.1 14.6 250 8.8
2010-05-20 10:52:06 51°14.903 2°46.042 251 14.7 252 9.4
2010-05-20 10:53:07 51°14.818 2°45.666 248 14.8 248 10.3
2010-05-20 10:54:07 51°14.731 2°45.299 249.8 14.9 250 10.9
2010-05-20 10:55:07 51°14.643 2°44.931 249.4 14.8 248 11.8
2010-05-20 10:56:07 51°14.555 2°44.562 249.3 14.9 249 12.8
2010-05-20 10:57:07 51°14.466 2°44.196 249 14.9 249 13.2
2010-05-20 10:58:06 51°14.372 2°43.84 247.6 14.8 246 13.8
2010-05-20 10:59:07 51°14.279 2°43.468 249.1 14.9 249 14.4
2010-05-20 11:00:06 51°14.187 2°43.11 249.7 14.8 250 14.6
2010-05-20 11:01:06 51°14.095 2°42.745 248.3 15 247 14.7
2010-05-20 11:02:07 51°14.001 2°42.368 249.1 15.1 247 14.6
2010-05-20 11:03:07 51°13.907 2°41.997 249 15 248 15
2010-05-20 11:04:07 51°13.816 2°41.626 249 15.1 248 15.2
2010-05-20 11:05:07 51°13.726 2°41.254 250.3 15 248 15.3
2010-05-20 11:06:07 51°13.636 2°40.883 249.9 15 248 15.1
2010-05-20 11:07:06 51°13.548 2°40.517 249.5 15.1 249 14.8
2010-05-20 11:08:06 51°13.456 2°40.144 249.8 15.1 250 14.6
2010-05-20 11:09:07 51°13.366 2°39.763 249.1 15.3 249 14.4
2010-05-20 11:10:07 51°13.276 2°39.391 250.3 15.2 249 13.7
2010-05-20 11:11:07 51°13.186 2°39.021 250.1 15 249 13.2
2010-05-20 11:12:06 51°13.086 2°38.668 239.1 15 237 12.3
2010-05-20 11:13:07 51°12.927 2°38.357 229.2 14.8 230 12.2
2010-05-20 11:14:07 51°12.754 2°38.081 213.3 14.7 214 11.8
2010-05-20 11:15:07 51°12.547 2°37.874 210.2 15 214 11.5
2010-05-20 11:16:07 51°12.338 2°37.67 207.1 14.9 210 11
2010-05-20 11:17:07 51°12.129 2°37.464 209.7 14.7 212 10.6
2010-05-20 11:18:07 51°11.921 2°37.251 210.2 14.9 214 10.8
2010-05-20 11:19:06 51°11.717 2°37.043 210.8 14.9 214 11
2010-05-20 11:20:07 51°11.506 2°36.829 210.4 14.7 213 10.7
2010-05-20 11:21:07 51°11.297 2°36.619 209.8 14.7 214 10.8
2010-05-20 11:22:07 51°11.088 2°36.408 210.3 14.8 213 10.3
2010-05-20 11:23:07 51°10.881 2°36.199 210.6 14.7 212 10.2
2010-05-20 11:24:07 51°10.674 2°35.993 210.2 14.6 212 9.5
2010-05-20 11:25:07 51°10.451 2°35.859 187.2 14.3 189 9.7
2010-05-20 11:26:07 51°10.215 2°35.834 180.7 14.3 184 9.5
2010-05-20 11:27:07 51°9.974 2°35.807 177.5 14.3 181 16.3
2010-05-20 11:28:07 51°9.757 2°35.897 146.1 13.1 152 17.3
2010-05-20 11:29:07 51°9.607 2°36.131 119.8 12.5 124 15.8
2010-05-20 11:30:07 51°9.557 2°36.432 83.7 11.6 81 14.9
2010-05-20 11:31:07 51°9.65 2°36.707 64.3 12 63 15.1
2010-05-20 11:32:07 51°9.761 2°36.973 58.4 12.1 56 15.1
2010-05-20 11:33:07 51°9.874 2°37.241 58.6 12.2 57 15.7
2010-05-20 11:34:07 51°9.986 2°37.509 59 12.2 57 16
2010-05-20 11:35:06 51°10.068 2°37.698 54.3 6 50 15.9
2010-05-20 11:36:07 51°10.116 2°37.782 51.6 3.3 45 16.1
2010-05-20 11:37:06 51°10.133 2°37.841 88.5 2.4 103 15.6
2010-05-20 11:38:07 51°10.079 2°37.881 162.8 4.7 181 15.9
2010-05-20 11:39:07 51°9.986 2°37.856 183.8 5.6 197 15.3
2010-05-20 11:40:07 51°9.907 2°37.797 199.2 5 212 15.2
2010-05-20 11:41:07 51°9.838 2°37.731 197 4.7 210 15
2010-05-20 11:42:06 51°9.775 2°37.662 209.8 4.7 221 15
2010-05-20 11:43:07 51°9.723 2°37.567 231.1 4.7 236 14.8
2010-05-20 11:44:07 51°9.686 2°37.458 246.2 4.7 246 14.5
2010-05-20 11:45:06 51°9.657 2°37.345 248.2 4.7 248 14.7
2010-05-20 11:46:07 51°9.626 2°37.232 243.7 4.5 244 14.6
2010-05-20 11:47:07 51°9.592 2°37.133 235.7 4.1 240 14.7
2010-05-20 11:48:07 51°9.555 2°37.045 227.2 3.9 234 14.6
2010-05-20 11:49:06 51°9.515 2°36.965 221.1 3.9 231 14.6
2010-05-20 11:50:07 51°9.476 2°36.881 232.2 3.9 237 14.5
2010-05-20 11:51:06 51°9.44 2°36.788 237.4 4.4 240 14.6
2010-05-20 11:52:06 51°9.403 2°36.685 237.2 4.6 241 14.5
2010-05-20 11:53:07 51°9.365 2°36.582 236.4 4.3 240 14.7
2010-05-20 11:54:07 51°9.329 2°36.484 236.2 4.2 240 14.7
2010-05-20 11:55:06 51°9.295 2°36.389 235.9 4.2 240 14.6
2010-05-20 11:56:07 51°9.26 2°36.291 234.8 4.2 239 14.7
2010-05-20 11:57:07 51°9.224 2°36.196 234 4.1 239 14.8
2010-05-20 11:58:06 51°9.189 2°36.103 234.2 4.1 239 14.8
2010-05-20 11:59:07 51°9.152 2°36.007 234.4 4.2 239 14.8
2010-05-20 12:00:07 51°9.117 2°35.911 236.9 4.2 241 14.8
2010-05-20 12:01:07 51°9.085 2°35.813 239.1 4.2 243 15
2010-05-20 12:02:06 51°9.053 2°35.716 239.6 4.2 243 15
2010-05-20 12:03:07 51°9.02 2°35.615 240.3 4.2 244 15
2010-05-20 12:04:06 51°8.989 2°35.519 239.9 4.2 242 15.1
2010-05-20 12:05:07 51°8.957 2°35.42 240.3 4 244 15.2
2010-05-20 12:06:07 51°8.927 2°35.327 238.8 3.9 243 15.1
2010-05-20 12:07:06 51°8.896 2°35.238 238.9 3.9 242 15.2
2010-05-20 12:08:06 51°8.866 2°35.148 240.3 3.8 242 15.2
2010-05-20 12:09:07 51°8.836 2°35.058 241.1 3.8 242 15.3
2010-05-20 12:10:07 51°8.807 2°34.971 240.9 3.7 242 15.4
2010-05-20 12:11:07 51°8.778 2°34.882 241.6 3.7 241 15.5
2010-05-20 12:12:06 51°8.75 2°34.796 240.8 3.8 242 15.6
2010-05-20 12:13:07 51°8.719 2°34.707 241.2 3.8 242 15.6
2010-05-20 12:14:06 51°8.688 2°34.614 240.4 4.2 242 15.8
2010-05-20 12:15:07 51°8.653 2°34.511 242 4.4 244 16
2010-05-20 12:16:06 51°8.631 2°34.398 270.4 4.6 261 16
2010-05-20 12:17:07 51°8.624 2°34.273 275.2 4.8 266 16
2010-05-20 12:18:07 51°8.623 2°34.146 285.8 4.8 273 16
2010-05-20 12:19:07 51°8.633 2°34.021 297.5 4.7 281 15.9
2010-05-20 12:20:06 51°8.654 2°33.908 311.3 4.4 292 15.9
2010-05-20 12:21:07 51°8.694 2°33.817 338.6 4 316 15.4
2010-05-20 12:22:06 51°8.743 2°33.759 355 3 327 15.4
2010-05-20 12:23:07 51°8.778 2°33.725 11.2 1.9 329 15.6
2010-05-20 12:24:07 51°8.799 2°33.702 18.6 1.4 321 15.7
2010-05-20 12:25:06 51°8.812 2°33.678 17.8 1.1 304 15.8
2010-05-20 12:26:07 51°8.826 2°33.654 19.7 1.6 337 15.8
2010-05-20 12:27:07 51°8.861 2°33.694 65.5 4.7 66 15.6
2010-05-20 12:28:06 51°8.875 2°33.872 86.4 7.9 86 14.9
2010-05-20 12:29:07 51°8.919 2°34.047 53.6 5.1 48 15.5
2010-05-20 12:30:07 51°8.973 2°34.078 19.8 2.8 357 14.8
2010-05-20 12:31:07 51°9.018 2°34.055 5.1 3.6 343 16
2010-05-20 12:32:06 51°9.1 2°34.038 11.3 6.2 -999 16
2010-05-20 12:33:07 51°9.169 2°34.045 28.1 2.7 8 17.3
2010-05-20 12:34:07 51°9.199 2°34.052 37.9 1.2 10 17.5
2010-05-20 12:35:07 51°9.213 2°34.051 37.2 0.7 340 17.8
2010-05-20 12:36:07 51°9.222 2°34.04 28.1 0.7 298 17.9
2010-05-20 12:37:07 51°9.236 2°34.027 25 2.5 6 18
2010-05-20 12:38:07 51°9.302 2°34.14 69.3 8.7 74 18.1
2010-05-20 12:39:07 51°9.281 2°34.414 99.5 11.4 104 15.9
2010-05-20 12:40:06 51°9.231 2°34.714 100.1 12.2 105 17.2
2010-05-20 12:41:07 51°9.182 2°35.031 100.3 12.1 103 16.3
2010-05-20 12:42:35 51°9.112 2°35.483 99.2 12 103 15.6
2010-05-20 12:43:46 51°9.059 2°35.846 99.6 11.9 101 14.9
2010-05-20 12:44:46 51°9.063 2°36.145 82.8 9.8 81 13.4
2010-05-20 12:45:46 51°9.051 2°36.311 106.2 4.4 117 12.1
2010-05-20 12:46:46 51°9.027 2°36.361 89.9 1.2 120 11.3
2010-05-20 12:47:46 51°9.021 2°36.378 75.6 0.4 116 11.1
2010-05-20 12:48:46 51°9.019 2°36.379 66.1 0.2 235 11.1
2010-05-20 12:49:46 51°9.018 2°36.371 58.7 0.4 251 11.2
2010-05-20 12:50:46 51°9.017 2°36.356 53.9 0.6 257 11.3
2010-05-20 12:51:46 51°9.014 2°36.337 51.2 0.8 257 11.1
2010-05-20 12:52:46 51°9.01 2°36.314 49.4 1 254 11.2
2010-05-20 12:53:46 51°9.005 2°36.29 48.4 1 253 11.3
2010-05-20 12:54:46 51°8.998 2°36.264 48.7 1.1 249 11.4
2010-05-20 12:55:46 51°8.991 2°36.237 49.6 1.2 248 11.5
2010-05-20 12:56:46 51°8.984 2°36.209 50.7 1.2 245 11.5
2010-05-20 12:57:46 51°8.976 2°36.181 51.6 1.2 242 11.4
2010-05-20 12:58:46 51°8.966 2°36.152 51.6 1.2 243 11.4
2010-05-20 12:59:46 51°8.957 2°36.123 51.4 1.3 242 11.6
2010-05-20 13:00:46 51°8.947 2°36.093 50.8 1.3 248 11.5
2010-05-20 13:01:46 51°8.937 2°36.063 50.4 1.3 243 11.5
2010-05-20 13:02:46 51°8.928 2°36.034 51.6 1.3 244 11.4
2010-05-20 13:03:46 51°8.918 2°36.003 52.8 1.4 243 11.5
2010-05-20 13:04:46 51°8.907 2°35.973 54.5 1.3 240 11.5
2010-05-20 13:05:46 51°8.9 2°35.946 48 0.7 261 11.5
2010-05-20 13:06:46 51°8.909 2°35.924 9.1 1.6 310 11.9
2010-05-20 13:07:46 51°8.944 2°35.883 356.8 4.2 338 13
2010-05-20 13:08:46 51°9.081 2°35.838 -999 10.5 350 15.2
2010-05-20 13:09:46 51°9.262 2°35.79 0.4 11.2 351 15.8
2010-05-20 13:10:46 51°9.45 2°35.739 359.4 11.9 350 16.1
2010-05-20 13:11:46 51°9.65 2°35.694 4.7 12.4 359 17.6
2010-05-20 13:12:46 51°9.855 2°35.737 16.8 12.5 11 18.1
2010-05-20 13:13:46 51°10.053 2°35.831 22 12.4 18 15.7
2010-05-20 13:14:46 51°10.246 2°35.947 24.7 12.2 21 10.2
2010-05-20 13:15:46 51°10.436 2°36.061 24 12.3 21 10.2
2010-05-20 13:16:46 51°10.627 2°36.176 23.8 12.2 20 10.4
2010-05-20 13:17:46 51°10.817 2°36.286 23.7 12.1 19 11.4
2010-05-20 13:18:46 51°11.007 2°36.393 23.5 12.1 20 11.6
2010-05-20 13:19:46 51°11.196 2°36.503 23.6 12.2 20 11.5
2010-05-20 13:20:46 51°11.387 2°36.612 23.1 12.1 19 11.4
2010-05-20 13:21:46 51°11.577 2°36.72 23.5 12.2 20 11.1
2010-05-20 13:22:46 51°11.767 2°36.829 23.3 12.1 20 10.6
2010-05-20 13:23:46 51°11.958 2°36.94 23.4 12.2 20 10.4
2010-05-20 13:24:46 51°12.149 2°37.05 23.3 12.2 20 10.2
2010-05-20 13:25:46 51°12.34 2°37.159 23.5 12.2 20 10.6
2010-05-20 13:26:46 51°12.536 2°37.249 16.8 12.3 12 10.5
2010-05-20 13:27:46 51°12.742 2°37.234 357.2 12.5 351 10.4
2010-05-20 13:28:46 51°12.948 2°37.219 7.8 12.3 4 9
2010-05-20 13:29:46 51°13.154 2°37.246 10.3 12.5 5 8.6
2010-05-20 13:30:46 51°13.361 2°37.281 10.8 12.5 6 8.9
2010-05-20 13:31:46 51°13.568 2°37.252 353.4 12.7 346 9.1
2010-05-20 13:32:46 51°13.761 2°37.074 327.9 13.5 319 19.1
2010-05-20 13:33:46 51°13.928 2°36.837 326.1 13.4 319 18.9
2010-05-20 13:34:46 51°14.107 2°36.632 333.2 13.1 326 13.5
2010-05-20 13:35:46 51°14.289 2°36.445 333.9 13.1 328 11
2010-05-20 13:36:46 51°14.481 2°36.294 346.3 12.9 341 11.4
2010-05-20 13:37:46 51°14.693 2°36.248 1.6 12.8 356 14.3
2010-05-20 13:38:46 51°14.904 2°36.225 0.9 12.8 355 16
2010-05-20 13:39:46 51°15.116 2°36.201 0.5 12.8 355 16
2010-05-20 13:40:46 51°15.328 2°36.171 0.1 12.8 355 17
2010-05-20 13:41:46 51°15.539 2°36.14 359.8 12.9 354 20.8
2010-05-20 13:42:46 51°15.75 2°36.101 359.5 12.7 354 26.1
2010-05-20 13:43:46 51°15.96 2°36.058 359.6 12.7 353 26.7
2010-05-20 13:44:46 51°16.169 2°36.052 8.2 12.5 1 27.1
2010-05-20 13:45:46 51°16.377 2°36.056 8.4 12.4 1 27.5
2010-05-20 13:46:46 51°16.584 2°36.056 7.5 12.5 -999 26.7
2010-05-20 13:47:46 51°16.79 2°36.06 7.7 12.3 1 26.9
2010-05-20 13:48:46 51°16.992 2°36.066 8.7 12.2 3 25
2010-05-20 13:49:46 51°17.195 2°36.084 8.8 12.2 3 21.8
2010-05-20 13:50:46 51°17.397 2°36.105 8.3 12.2 2 18.2
2010-05-20 13:51:46 51°17.598 2°36.128 9.5 12.1 3 14.5
2010-05-20 13:52:46 51°17.8 2°36.151 9.9 12.2 5 14
2010-05-20 13:53:46 51°18.004 2°36.176 9.8 12.3 5 12.6
2010-05-20 13:54:46 51°18.209 2°36.2 9.4 12.4 3 16.5
2010-05-20 13:55:46 51°18.417 2°36.224 10.2 12.5 5 21.7
2010-05-20 13:56:46 51°18.624 2°36.246 9.9 12.4 4 21.6
2010-05-20 13:57:46 51°18.831 2°36.269 8.8 12.4 3 21.5
2010-05-20 13:58:46 51°19.036 2°36.291 10 12.3 5 22.3
2010-05-20 13:59:46 51°19.242 2°36.311 8.2 12.4 4 22.3
2010-05-20 14:00:46 51°19.448 2°36.336 8.8 12.5 4 22.6
2010-05-20 14:01:46 51°19.653 2°36.361 10.2 12.3 4 22
2010-05-20 14:02:46 51°19.858 2°36.384 10 12.3 5 22
2010-05-20 14:03:46 51°20.058 2°36.434 20.5 12.1 15 22.5
2010-05-20 14:04:46 51°20.253 2°36.516 19.3 12.2 13 22
2010-05-20 14:05:46 51°20.431 2°36.652 40.4 11.9 39 21.7
2010-05-20 14:06:46 51°20.507 2°36.929 80.7 12.1 82 22.4
2010-05-20 14:07:46 51°20.472 2°37.25 101.4 12.6 107 22.8
2010-05-20 14:08:46 51°20.353 2°37.536 120.2 13.1 126 23.7
2010-05-20 14:09:46 51°20.231 2°37.822 119.6 13.1 124 21.5
2010-05-20 14:10:46 51°20.112 2°38.108 120.2 12.9 124 24.3
2010-05-20 14:11:46 51°19.994 2°38.391 119.8 12.8 124 23
2010-05-20 14:12:46 51°19.854 2°38.649 129.8 13 135 24.5
2010-05-20 14:13:46 51°19.702 2°38.896 130.3 13.1 137 26.5
2010-05-20 14:14:46 51°19.555 2°39.145 130.3 12.7 132 28.9
2010-05-20 14:15:46 51°19.406 2°39.388 129.3 12.8 134 30.3
2010-05-20 14:16:46 51°19.26 2°39.641 130.9 13 135 27.2
2010-05-20 14:17:46 51°19.115 2°39.897 129.6 13.1 133 24.1
2010-05-20 14:18:46 51°18.965 2°40.155 129.5 13.2 133 22.4
2010-05-20 14:19:46 51°18.816 2°40.415 129.2 13.2 131 20.6
2010-05-20 14:20:46 51°18.667 2°40.672 127.6 13.3 131 19.4
2010-05-20 14:21:46 51°18.512 2°40.921 132.2 13 138 14.5
2010-05-20 14:22:46 51°18.361 2°41.174 127.5 13.1 131 19.1
2010-05-20 14:23:46 51°18.214 2°41.432 130 13 137 22.5
2010-05-20 14:24:46 51°18.067 2°41.69 130.5 13.3 132 24
2010-05-20 14:25:46 51°17.918 2°41.944 131.3 13.1 132 24.7
2010-05-20 14:26:46 51°17.77 2°42.2 129.5 13.2 132 24.4
2010-05-20 14:27:46 51°17.622 2°42.459 131.1 13.3 133 23.8
2010-05-20 14:28:46 51°17.475 2°42.719 130 13.3 134 15.5
2010-05-20 14:29:46 51°17.306 2°42.937 151.8 13.5 157 10.8
2010-05-20 14:30:46 51°17.088 2°43.048 158.9 13.8 164 12.8
2010-05-20 14:31:46 51°16.868 2°43.158 159.2 13.9 162 12.7
2010-05-20 14:32:46 51°16.656 2°43.296 147 13.9 148 14
2010-05-20 14:33:46 51°16.462 2°43.489 138.9 13.7 141 15.4
2010-05-20 14:34:46 51°16.279 2°43.708 140.1 13.9 142 14.7
2010-05-20 14:35:46 51°16.12 2°43.966 130 13.7 135 12.3
2010-05-20 14:36:46 51°15.966 2°44.233 128.7 13.7 132 11.8
2010-05-20 14:37:46 51°15.857 2°44.544 109 13.4 112 12.4
2010-05-20 14:38:46 51°15.799 2°44.888 99.6 13.4 105 13.2
2010-05-20 14:39:46 51°15.751 2°45.234 99.6 13.4 103 13.2
2010-05-20 14:40:46 51°15.706 2°45.583 99.5 13.5 101 16.2
2010-05-20 14:41:46 51°15.664 2°45.932 99.5 13.4 99 17.8
2010-05-20 14:42:46 51°15.625 2°46.282 96.3 13.3 99 17.9
2010-05-20 14:43:46 51°15.582 2°46.628 97.3 13.3 99 16.6
2010-05-20 14:44:46 51°15.541 2°46.974 99.2 13.2 103 15.5
2010-05-20 14:45:46 51°15.499 2°47.319 99.3 13.2 101 13.5
2010-05-20 14:46:46 51°15.47 2°47.665 90.6 13.1 94 12.1
2010-05-20 14:47:46 51°15.463 2°48.013 89.6 13.1 91 11.2
2010-05-20 14:48:46 51°15.454 2°48.362 89.2 13.2 92 11.4
2010-05-20 14:49:46 51°15.449 2°48.712 89.9 13.3 91 12.1
2010-05-20 14:50:46 51°15.443 2°49.065 89.3 13.3 91 13.8
2010-05-20 14:51:46 51°15.435 2°49.418 90.8 13.3 92 13.9
2010-05-20 14:52:46 51°15.431 2°49.77 89.7 13.2 91 13.7
2010-05-20 14:53:46 51°15.423 2°50.121 88.9 13.1 92 13.8
2010-05-20 14:54:46 51°15.416 2°50.472 89.1 13.1 90 13.6
2010-05-20 14:55:46 51°15.41 2°50.821 89.2 13.2 92 13.7
2010-05-20 14:56:46 51°15.405 2°51.173 88.2 13.2 89 13.4
2010-05-20 14:57:46 51°15.399 2°51.525 92.9 13.3 97 13.2
2010-05-20 14:58:46 51°15.322 2°51.857 109.5 13.4 111 12.8
2010-05-20 14:59:46 51°15.267 2°52.193 98.4 13.2 100 12.2
2010-05-20 15:00:46 51°15.229 2°52.541 98 13.3 100 11.8
2010-05-20 15:01:46 51°15.193 2°52.891 93.8 13.4 97 11.6
2010-05-20 15:02:46 51°15.166 2°53.246 95.2 13.5 97 11.1
2010-05-20 15:03:46 51°15.136 2°53.602 96.2 13.5 99 10.8
2010-05-20 15:04:46 51°15.091 2°53.954 101 13.5 102 10.5
2010-05-20 15:05:46 51°15.025 2°54.295 114.8 13.5 116 9.6
2010-05-20 15:06:46 51°14.88 2°54.571 136.8 13.5 139 12.4
2010-05-20 15:07:46 51°14.704 2°54.798 140.2 13.5 141 12.9
2010-05-20 15:08:46 51°14.522 2°55.005 148.5 13.3 148 12.5
2010-05-20 15:09:46 51°14.333 2°55.188 146.8 12.8 147 11.5
2010-05-20 15:10:50 51°14.176 2°55.375 145.2 10 144 11.5
2010-05-20 15:11:49 51°14.053 2°55.477 156.6 7.2 156 -999
2010-05-20 15:12:50 51°13.946 2°55.551 158.5 6.9 158 -999
2010-05-20 15:13:50 51°13.846 2°55.615 155.1 6.5 156 -999
2010-05-20 15:14:50 51°13.763 2°55.699 132.2 5.5 135 -999
2010-05-20 15:15:50 51°13.71 2°55.81 124.8 5.2 125 -999
2010-05-20 15:16:50 51°13.672 2°55.913 110.3 3.9 114 -999
2010-05-20 15:17:50 51°13.661 2°55.958 118.6 0.6 110 -999